createdAt,value
2022-09-20T00:01:33.266Z,2.20
2022-09-20T00:04:06.960Z,2.00
2022-09-20T00:06:36.003Z,1.90
2022-09-20T00:09:05.040Z,2.63
2022-09-20T00:11:35.224Z,3.17
2022-09-20T00:14:05.987Z,2.80
2022-09-20T00:16:36.206Z,2.50
2022-09-20T00:19:06.965Z,2.35
2022-09-20T00:21:37.941Z,2.38
2022-09-20T00:24:06.959Z,3.17
2022-09-20T00:26:35.275Z,3.05
2022-09-20T00:29:03.739Z,2.10
2022-09-20T00:31:31.949Z,1.98
2022-09-20T00:34:23.097Z,2.35
2022-09-20T00:36:52.430Z,1.83
2022-09-20T00:39:21.006Z,2.50
2022-09-20T00:41:48.957Z,2.40
2022-09-20T00:44:56.997Z,2.10
2022-09-20T00:47:31.840Z,2.65
2022-09-20T00:50:06.690Z,2.60
2022-09-20T00:52:37.960Z,2.22
2022-09-20T00:55:09.732Z,2.10
2022-09-20T00:57:39.278Z,2.40
2022-09-20T01:00:10.486Z,2.28
2022-09-20T01:02:42.640Z,2.10
2022-09-20T01:05:13.679Z,1.80
2022-09-20T01:07:44.014Z,2.38
2022-09-20T01:10:12.129Z,2.20
2022-09-20T01:12:41.399Z,1.88
2022-09-20T01:15:12.175Z,2.03
2022-09-20T01:17:45.641Z,2.00
2022-09-20T01:20:18.475Z,2.70
2022-09-20T01:23:05.451Z,2.40
2022-09-20T01:25:51.344Z,2.35
2022-09-20T01:28:20.807Z,2.28
2022-09-20T01:30:53.005Z,2.03
2022-09-20T01:33:31.281Z,2.50
2022-09-20T01:36:04.534Z,1.90
2022-09-20T01:38:43.730Z,2.50
2022-09-20T01:41:16.497Z,1.92
2022-09-20T01:43:52.232Z,1.95
2022-09-20T01:46:30.140Z,1.85
2022-09-20T01:49:12.211Z,2.33
2022-09-20T01:52:07.300Z,1.60
2022-09-20T01:55:03.027Z,2.20
2022-09-20T01:58:00.990Z,3.03
2022-09-20T02:00:35.043Z,2.20
2022-09-20T02:03:29.279Z,1.80
2022-09-20T02:06:14.433Z,2.15
2022-09-20T02:09:09.223Z,1.80
2022-09-20T02:11:50.702Z,2.05
2022-09-20T02:14:33.264Z,2.00
2022-09-20T02:17:13.865Z,2.00
2022-09-20T02:20:24.183Z,2.17
2022-09-20T02:23:12.788Z,1.88
2022-09-20T02:25:54.398Z,2.75
2022-09-20T02:28:29.885Z,2.53
2022-09-20T02:31:11.536Z,2.03
2022-09-20T02:34:06.627Z,2.78
2022-09-20T02:36:43.018Z,1.80
2022-09-20T02:39:16.369Z,2.00
2022-09-20T02:41:59.059Z,2.10
2022-09-20T02:44:40.019Z,1.85
2022-09-20T02:47:14.856Z,2.17
2022-09-20T02:49:58.313Z,2.78
2022-09-20T02:52:32.867Z,2.95
2022-09-20T02:55:06.576Z,2.80
2022-09-20T02:57:43.718Z,2.45
2022-09-20T03:00:17.929Z,2.40
2022-09-20T03:02:56.274Z,2.17
2022-09-20T03:05:31.643Z,2.63
2022-09-20T03:08:12.743Z,2.00
2022-09-20T03:10:46.537Z,1.92
2022-09-20T03:13:31.815Z,2.58
2022-09-20T03:16:10.447Z,2.42
2022-09-20T03:18:50.152Z,1.60
2022-09-20T03:21:32.922Z,3.20
2022-09-20T03:24:12.449Z,3.22
2022-09-20T03:26:52.272Z,2.38
2022-09-20T03:29:35.551Z,2.20
2022-09-20T03:32:19.117Z,2.03
2022-09-20T03:35:00.161Z,2.65
2022-09-20T03:37:46.026Z,2.85
2022-09-20T03:40:46.913Z,2.15
2022-09-20T03:43:28.509Z,2.60
2022-09-20T03:46:08.275Z,2.40
2022-09-20T03:48:57.596Z,2.08
2022-09-20T03:51:34.088Z,4.15
2022-09-20T03:54:29.325Z,2.30
2022-09-20T03:57:16.942Z,2.10
2022-09-20T04:00:16.013Z,2.38
2022-09-20T04:03:01.966Z,2.50
2022-09-20T04:05:41.291Z,2.22
2022-09-20T04:08:25.113Z,2.72
2022-09-20T04:11:03.250Z,2.75
2022-09-20T04:13:37.321Z,2.92
2022-09-20T04:16:17.200Z,2.78
2022-09-20T04:18:50.807Z,3.40
2022-09-20T04:21:25.939Z,2.90
2022-09-20T04:24:00.766Z,1.98
2022-09-20T04:26:32.345Z,2.40
2022-09-20T04:29:11.353Z,2.10
2022-09-20T04:31:48.830Z,2.22
2022-09-20T04:34:46.097Z,2.45
2022-09-20T04:37:26.707Z,2.15
2022-09-20T04:40:18.797Z,2.55
2022-09-20T04:43:19.503Z,2.05
2022-09-20T04:46:04.773Z,3.22
2022-09-20T04:49:03.903Z,2.08
2022-09-20T04:51:55.096Z,2.60
2022-09-20T04:55:03.125Z,2.63
2022-09-20T04:58:04.973Z,3.28
2022-09-20T05:00:49.804Z,2.15
2022-09-20T05:03:44.178Z,2.85
2022-09-20T05:06:35.689Z,2.40
2022-09-20T05:09:40.892Z,2.90
2022-09-20T05:12:31.062Z,2.83
2022-09-20T05:15:12.479Z,3.35
2022-09-20T05:18:01.927Z,2.72
2022-09-20T05:21:04.857Z,2.95
2022-09-20T05:23:53.050Z,2.63
2022-09-20T05:26:35.673Z,2.85
2022-09-20T05:29:10.620Z,2.42
2022-09-20T05:31:43.586Z,2.65
2022-09-20T05:34:21.567Z,2.83
2022-09-20T05:36:58.763Z,3.00
2022-09-20T05:39:37.473Z,3.40
2022-09-20T05:42:19.577Z,3.17
2022-09-20T05:45:05.222Z,2.70
2022-09-20T05:47:39.874Z,2.50
2022-09-20T05:50:30.955Z,3.38
2022-09-20T05:53:10.996Z,2.97
2022-09-20T05:56:02.044Z,3.45
2022-09-20T05:58:47.282Z,3.60
2022-09-20T06:01:21.832Z,3.53
2022-09-20T06:03:55.705Z,3.10
2022-09-20T06:06:32.682Z,3.00
2022-09-20T06:09:17.112Z,3.28
2022-09-20T06:11:56.012Z,3.50
2022-09-20T06:14:39.414Z,3.05
2022-09-20T06:17:20.310Z,3.30
2022-09-20T06:19:55.258Z,2.60
2022-09-20T06:22:31.117Z,2.60
2022-09-20T06:25:04.266Z,3.63
2022-09-20T06:27:38.871Z,3.47
2022-09-20T06:30:14.685Z,2.75
2022-09-20T06:32:54.739Z,3.10
2022-09-20T06:35:27.317Z,3.15
2022-09-20T06:38:21.796Z,3.63
2022-09-20T06:41:08.889Z,3.15
2022-09-20T06:43:40.476Z,2.85
2022-09-20T06:46:08.964Z,3.03
2022-09-20T06:48:40.037Z,3.38
2022-09-20T06:51:09.288Z,3.60
2022-09-20T06:53:41.615Z,3.00
2022-09-20T06:56:15.043Z,2.85
2022-09-20T06:58:43.220Z,3.50
2022-09-20T07:01:12.232Z,4.40
2022-09-20T07:03:40.395Z,3.50
2022-09-20T07:06:08.964Z,2.85
2022-09-20T07:08:38.588Z,2.97
2022-09-20T07:11:09.122Z,2.60
2022-09-20T07:13:37.554Z,3.28
2022-09-20T07:16:07.584Z,4.00
2022-09-20T07:18:36.200Z,4.25
2022-09-20T07:21:06.363Z,3.63
2022-09-20T07:23:34.363Z,4.03
2022-09-20T07:26:04.193Z,4.03
2022-09-20T07:28:34.263Z,4.80
2022-09-20T07:31:02.534Z,5.05
2022-09-20T07:33:31.336Z,6.05
2022-09-20T07:35:59.356Z,5.00
2022-09-20T07:38:27.515Z,5.75
2022-09-20T07:40:57.641Z,7.00
2022-09-20T07:43:27.442Z,6.25
2022-09-20T07:45:58.146Z,6.25
2022-09-20T07:48:28.407Z,7.20
2022-09-20T07:50:59.161Z,5.88
2022-09-20T07:53:27.280Z,6.07
2022-09-20T07:56:02.670Z,5.93
2022-09-20T07:58:34.515Z,6.30
2022-09-20T08:01:04.135Z,5.10
2022-09-20T08:03:33.320Z,4.10
2022-09-20T08:06:02.178Z,4.60
2022-09-20T08:08:33.649Z,4.10
2022-09-20T08:11:06.492Z,4.57
2022-09-20T08:16:28.133Z,3.47
2022-09-20T08:18:58.804Z,3.33
2022-09-20T08:21:28.364Z,2.45
2022-09-20T08:23:56.417Z,2.08
2022-09-20T08:26:25.858Z,2.95
2022-09-20T08:28:57.195Z,2.55
2022-09-20T08:31:27.350Z,2.30
2022-09-20T08:33:56.344Z,2.35
2022-09-20T08:36:25.708Z,2.70
2022-09-20T08:41:47.887Z,2.53
2022-09-20T08:44:25.179Z,2.13
2022-09-20T08:47:04.557Z,2.38
2022-09-20T08:49:33.365Z,2.40
2022-09-20T08:52:03.512Z,1.75
2022-09-20T08:54:33.399Z,2.35
2022-09-20T08:57:07.295Z,2.40
2022-09-20T08:59:36.662Z,2.95
2022-09-20T09:02:04.898Z,1.52
2022-09-20T09:04:37.558Z,1.63
2022-09-20T09:07:05.990Z,2.50
2022-09-20T09:09:41.225Z,2.13
2022-09-20T09:12:18.816Z,1.90
2022-09-20T09:14:55.051Z,2.13
2022-09-20T09:17:28.218Z,1.85
2022-09-20T09:19:57.412Z,1.55
2022-09-20T09:22:32.290Z,1.73
2022-09-20T09:25:24.533Z,2.10
2022-09-20T09:27:55.139Z,2.10
2022-09-20T09:30:27.746Z,2.30
2022-09-20T09:33:18.491Z,3.10
2022-09-20T09:35:54.405Z,3.15
2022-09-20T09:38:24.840Z,1.83
2022-09-20T09:40:54.667Z,1.90
2022-09-20T09:43:27.320Z,2.10
2022-09-20T09:46:16.512Z,1.38
2022-09-20T09:48:50.000Z,1.77
2022-09-20T09:51:20.142Z,1.92
2022-09-20T09:53:50.301Z,2.15
2022-09-20T09:56:47.259Z,1.95
2022-09-20T09:59:33.000Z,2.00
2022-09-20T10:02:13.148Z,1.70
2022-09-20T10:04:51.414Z,2.38
2022-09-20T10:07:26.595Z,2.05
2022-09-20T10:10:07.269Z,1.90
2022-09-20T10:12:52.449Z,2.20
2022-09-20T10:15:31.150Z,2.35
2022-09-20T10:18:19.311Z,2.35
2022-09-20T10:21:07.945Z,2.15
2022-09-20T10:24:04.870Z,2.70
2022-09-20T10:27:03.335Z,2.45
2022-09-20T10:29:41.868Z,2.50
2022-09-20T10:32:22.933Z,2.25
2022-09-20T10:35:15.342Z,2.90
2022-09-20T10:37:55.898Z,2.30
2022-09-20T10:40:51.566Z,3.53
2022-09-20T10:43:38.343Z,2.00
2022-09-20T10:46:33.373Z,3.00
2022-09-20T10:49:18.366Z,2.70
2022-09-20T10:51:58.488Z,2.05
2022-09-20T10:54:39.468Z,2.72
2022-09-20T10:57:26.957Z,1.83
2022-09-20T11:00:01.074Z,2.40
2022-09-20T11:02:46.999Z,1.83
2022-09-20T11:05:27.266Z,2.30
2022-09-20T11:08:07.305Z,2.85
2022-09-20T11:10:39.263Z,2.50
2022-09-20T11:13:13.938Z,2.40
2022-09-20T11:15:47.051Z,2.47
2022-09-20T11:18:23.911Z,2.25
2022-09-20T11:20:59.512Z,2.35
2022-09-20T11:23:42.330Z,2.08
2022-09-20T11:26:14.241Z,2.30
2022-09-20T11:28:47.249Z,2.42
2022-09-20T11:31:21.071Z,1.90
2022-09-20T11:33:56.501Z,2.50
2022-09-20T11:36:28.663Z,2.40
2022-09-20T11:39:03.703Z,2.55
2022-09-20T11:41:33.051Z,2.90
2022-09-20T11:44:07.115Z,2.28
2022-09-20T11:46:41.440Z,2.50
2022-09-20T11:49:15.892Z,1.92
2022-09-20T11:52:10.367Z,2.45
2022-09-20T11:55:13.222Z,2.35
2022-09-20T11:57:41.717Z,2.60
2022-09-20T12:00:11.243Z,3.05
2022-09-20T12:02:47.889Z,1.60
2022-09-20T12:05:30.622Z,2.40
2022-09-20T12:08:00.489Z,1.77
2022-09-20T12:10:34.792Z,2.55
2022-09-20T12:13:05.637Z,1.80
2022-09-20T12:15:36.767Z,1.90
2022-09-20T12:18:29.393Z,2.40
2022-09-20T12:21:14.966Z,2.15
2022-09-20T12:24:21.149Z,1.95
2022-09-20T12:26:57.506Z,1.90
2022-09-20T12:29:55.260Z,1.83
2022-09-20T12:32:50.515Z,2.00
2022-09-20T12:35:59.450Z,2.00
2022-09-20T12:38:48.289Z,1.67
2022-09-20T12:41:27.823Z,1.83
2022-09-20T12:44:05.853Z,1.65
2022-09-20T12:46:38.239Z,1.58
2022-09-20T12:49:55.510Z,2.00
2022-09-20T12:52:56.217Z,1.80
2022-09-20T12:55:52.936Z,1.50
2022-09-20T12:58:25.604Z,1.77
2022-09-20T13:01:26.593Z,2.35
2022-09-20T13:04:41.294Z,2.03
2022-09-20T13:07:33.374Z,1.60
2022-09-20T13:10:07.586Z,1.70
2022-09-20T13:12:39.966Z,1.98
2022-09-20T13:15:15.801Z,1.90
2022-09-20T13:17:45.306Z,1.40
2022-09-20T13:20:21.740Z,1.55
2022-09-20T13:22:50.161Z,2.50
2022-09-20T13:25:21.345Z,1.70
2022-09-20T13:27:55.190Z,1.58
2022-09-20T13:30:25.465Z,1.90
2022-09-20T13:32:55.090Z,1.40
2022-09-20T13:35:29.438Z,1.65
2022-09-20T13:37:59.570Z,1.50
2022-09-20T13:40:34.300Z,1.80
2022-09-20T13:43:22.718Z,1.85
2022-09-20T13:45:54.782Z,2.28
2022-09-20T13:48:25.970Z,2.20
2022-09-20T13:50:56.555Z,1.85
2022-09-20T13:53:42.448Z,1.95
2022-09-20T13:56:13.026Z,2.22
2022-09-20T13:58:41.982Z,2.30
2022-09-20T14:01:27.580Z,1.73
2022-09-20T14:04:00.300Z,1.90
2022-09-20T14:06:30.061Z,7.15
2022-09-20T14:08:59.891Z,5.07
2022-09-20T14:11:31.095Z,2.00
2022-09-20T14:14:01.676Z,1.90
2022-09-20T14:16:32.326Z,1.80
2022-09-20T14:19:01.320Z,1.60
2022-09-20T14:21:34.717Z,1.70
2022-09-20T14:24:07.220Z,1.52
2022-09-20T14:26:36.939Z,1.65
2022-09-20T14:29:30.553Z,1.45
2022-09-20T14:32:00.954Z,1.23
2022-09-20T14:34:29.373Z,1.60
2022-09-20T14:37:06.546Z,1.38
2022-09-20T14:39:38.601Z,1.63
2022-09-20T14:42:19.831Z,1.33
2022-09-20T14:44:52.032Z,1.83
2022-09-20T14:47:27.396Z,1.30
2022-09-20T14:49:56.107Z,1.60
2022-09-20T14:52:39.202Z,1.33
2022-09-20T14:55:22.554Z,1.20
2022-09-20T14:57:51.306Z,2.28
2022-09-20T15:00:20.652Z,2.28
2022-09-20T15:02:48.838Z,1.80
2022-09-20T15:05:24.022Z,1.40
2022-09-20T15:07:54.475Z,1.50
2022-09-20T15:10:23.351Z,1.60
2022-09-20T15:12:51.402Z,1.50
2022-09-20T15:15:19.883Z,1.70
2022-09-20T15:17:48.879Z,1.60
2022-09-20T15:20:24.040Z,2.00
2022-09-20T15:22:53.980Z,1.88
2022-09-20T15:25:22.831Z,1.75
2022-09-20T15:27:51.774Z,1.88
2022-09-20T15:30:20.976Z,1.90
2022-09-20T15:32:48.995Z,1.73
2022-09-20T15:35:17.181Z,2.05
2022-09-20T15:37:46.019Z,2.05
2022-09-20T15:40:15.675Z,3.35
2022-09-20T15:42:43.911Z,3.20
2022-09-20T15:45:12.730Z,2.10
2022-09-20T15:47:41.354Z,2.10
2022-09-20T15:50:10.730Z,2.20
2022-09-20T15:52:40.681Z,2.42
2022-09-20T15:55:09.441Z,1.58
2022-09-20T15:57:39.523Z,1.83
2022-09-20T16:00:08.839Z,2.13
2022-09-20T16:02:36.990Z,1.80
2022-09-20T16:05:06.041Z,1.70
2022-09-20T16:07:34.006Z,2.25
2022-09-20T16:10:01.942Z,1.95
2022-09-20T16:12:29.956Z,2.75
2022-09-20T16:14:59.386Z,1.98
2022-09-20T16:17:41.282Z,2.00
2022-09-20T16:20:09.998Z,1.95
2022-09-20T16:22:38.263Z,2.00
2022-09-20T16:25:07.187Z,2.15
2022-09-20T16:27:35.262Z,2.15
2022-09-20T16:30:05.252Z,1.80
2022-09-20T16:32:33.332Z,2.25
2022-09-20T16:35:03.854Z,2.70
2022-09-20T16:37:32.711Z,2.00
2022-09-20T16:40:00.963Z,1.88
2022-09-20T16:42:29.418Z,1.90
2022-09-20T16:44:58.377Z,2.30
2022-09-20T16:47:27.804Z,2.15
2022-09-20T16:49:56.427Z,1.98
2022-09-20T16:52:26.467Z,2.10
2022-09-20T16:54:54.493Z,2.28
2022-09-20T16:57:22.561Z,2.40
2022-09-20T16:59:51.903Z,2.17
2022-09-20T17:02:19.943Z,1.90
2022-09-20T17:04:49.508Z,2.28
2022-09-20T17:07:17.707Z,2.10
2022-09-20T17:09:45.975Z,1.92
2022-09-20T17:12:15.189Z,1.90
2022-09-20T17:14:43.649Z,2.50
2022-09-20T17:17:12.914Z,2.05
2022-09-20T17:19:41.442Z,2.17
2022-09-20T17:22:11.527Z,2.80
2022-09-20T17:24:39.554Z,2.30
2022-09-20T17:27:08.367Z,1.90
2022-09-20T17:29:36.391Z,2.10
2022-09-20T17:32:04.431Z,2.10
2022-09-20T17:34:32.642Z,1.83
2022-09-20T17:37:01.751Z,2.30
2022-09-20T17:39:31.251Z,1.95
2022-09-20T17:41:59.411Z,2.72
2022-09-20T17:44:28.847Z,2.20
2022-09-20T17:46:56.880Z,2.47
2022-09-20T17:49:26.931Z,2.58
2022-09-20T17:51:56.797Z,2.30
2022-09-20T17:54:25.521Z,2.88
2022-09-20T17:56:56.559Z,2.33
2022-09-20T17:59:24.753Z,2.22
2022-09-20T18:01:54.347Z,2.65
2022-09-20T18:04:24.473Z,3.10
2022-09-20T18:06:54.210Z,3.63
2022-09-20T18:09:24.290Z,2.95
2022-09-20T18:11:55.044Z,2.25
2022-09-20T18:14:24.725Z,2.70
2022-09-20T18:16:57.908Z,2.65
2022-09-20T18:19:32.844Z,2.90
2022-09-20T18:22:01.991Z,5.45
2022-09-20T18:24:31.021Z,3.15
2022-09-20T18:27:01.721Z,3.67
2022-09-20T18:29:33.384Z,3.72
2022-09-20T18:32:01.359Z,3.83
2022-09-20T18:34:31.331Z,4.30
2022-09-20T18:37:01.205Z,3.25
2022-09-20T18:39:32.491Z,3.17
2022-09-20T18:42:03.298Z,3.05
2022-09-20T18:44:32.329Z,3.75
2022-09-20T18:47:01.329Z,5.07
2022-09-20T18:49:30.671Z,3.90
2022-09-20T18:51:59.351Z,3.33
2022-09-20T18:54:30.233Z,3.15
2022-09-20T18:56:58.999Z,4.35
2022-09-20T18:59:29.472Z,4.63
2022-09-20T19:02:21.170Z,3.08
2022-09-20T19:05:23.195Z,2.85
2022-09-20T19:08:02.615Z,4.25
2022-09-20T19:10:40.213Z,3.17
2022-09-20T19:13:24.296Z,3.08
2022-09-20T19:16:11.292Z,3.00
2022-09-20T19:19:00.916Z,4.15
2022-09-20T19:21:32.071Z,4.55
2022-09-20T19:24:15.896Z,4.90
2022-09-20T19:26:44.663Z,4.88
2022-09-20T19:29:20.020Z,4.70
2022-09-20T19:31:51.060Z,5.25
2022-09-20T19:34:21.966Z,4.55
2022-09-20T19:37:02.555Z,5.18
2022-09-20T19:39:41.756Z,4.30
2022-09-20T19:42:22.720Z,4.60
2022-09-20T19:45:03.671Z,4.25
2022-09-20T19:47:47.245Z,4.28
2022-09-20T19:50:27.834Z,3.70
2022-09-20T19:52:57.063Z,3.67
2022-09-20T19:55:26.195Z,3.40
2022-09-20T19:57:55.305Z,3.50
2022-09-20T20:00:24.139Z,3.72
2022-09-20T20:02:54.560Z,3.58
2022-09-20T20:05:25.633Z,3.70
2022-09-20T20:08:07.061Z,4.10
2022-09-20T20:10:46.189Z,3.22
2022-09-20T20:13:43.157Z,3.88
2022-09-20T20:16:15.680Z,3.00
2022-09-20T20:18:59.992Z,2.95
2022-09-20T20:21:39.441Z,4.22
2022-09-20T20:24:20.808Z,3.70
2022-09-20T20:26:48.748Z,3.42
2022-09-20T20:29:16.814Z,3.80
2022-09-20T20:31:44.835Z,3.67
2022-09-20T20:34:16.242Z,3.30
2022-09-20T20:36:44.978Z,3.75
2022-09-20T20:39:13.504Z,3.28
2022-09-20T20:41:43.015Z,2.45
2022-09-20T20:44:11.030Z,3.38
2022-09-20T20:46:39.155Z,3.28
2022-09-20T20:49:07.152Z,3.83
2022-09-20T20:51:36.656Z,3.30
2022-09-20T20:54:05.219Z,3.05
2022-09-20T20:56:33.214Z,2.80
2022-09-20T20:59:01.584Z,3.10
2022-09-20T21:01:31.755Z,3.45
2022-09-20T21:04:00.395Z,3.40
2022-09-20T21:06:30.230Z,3.95
2022-09-20T21:09:00.390Z,3.30
2022-09-20T21:11:31.177Z,3.92
2022-09-20T21:14:00.526Z,3.40
2022-09-20T21:16:30.851Z,2.70
2022-09-20T21:18:59.804Z,3.10
2022-09-20T21:21:30.094Z,3.22
2022-09-20T21:24:01.536Z,3.33
2022-09-20T21:26:33.142Z,3.40
2022-09-20T21:29:03.348Z,3.35
2022-09-20T21:31:33.224Z,3.13
2022-09-20T21:34:01.447Z,3.10
2022-09-20T21:36:31.036Z,3.70
2022-09-20T21:39:00.767Z,3.00
2022-09-20T21:41:30.435Z,3.22
2022-09-20T21:44:00.206Z,2.92
2022-09-20T21:46:30.006Z,3.08
2022-09-20T21:48:59.979Z,3.03
2022-09-20T21:51:31.023Z,3.28
2022-09-20T21:54:02.011Z,3.30
2022-09-20T21:56:32.524Z,3.85
2022-09-20T21:59:02.696Z,3.95
2022-09-20T22:01:34.628Z,3.67
2022-09-20T22:04:07.100Z,2.90
2022-09-20T22:06:37.875Z,3.40
2022-09-20T22:09:08.923Z,3.20
2022-09-20T22:11:39.269Z,3.72
2022-09-20T22:14:08.124Z,3.90
2022-09-20T22:16:37.797Z,3.13
2022-09-20T22:19:07.015Z,3.95
2022-09-20T22:21:36.865Z,2.72
2022-09-20T22:24:07.978Z,3.70
2022-09-20T22:26:38.024Z,2.67
2022-09-20T22:29:07.652Z,3.05
2022-09-20T22:31:38.086Z,2.83
2022-09-20T22:34:07.737Z,3.00
2022-09-20T22:36:38.054Z,3.63
2022-09-20T22:39:09.474Z,4.43
2022-09-20T22:41:39.331Z,3.92
2022-09-20T22:44:07.273Z,3.28
2022-09-20T22:46:36.133Z,4.32
2022-09-20T22:49:05.835Z,4.40
2022-09-20T22:51:34.613Z,4.03
2022-09-20T22:54:08.109Z,3.67
2022-09-20T22:56:36.694Z,3.95
2022-09-20T22:59:07.328Z,3.67
2022-09-20T23:01:36.835Z,4.30
2022-09-20T23:04:08.257Z,4.43
2022-09-20T23:06:38.735Z,3.85
2022-09-20T23:09:10.062Z,4.30
2022-09-20T23:11:39.736Z,4.68
2022-09-20T23:14:08.117Z,4.15
2022-09-20T23:16:37.877Z,4.43
2022-09-20T23:19:07.377Z,3.72
2022-09-20T23:21:37.355Z,4.25
2022-09-20T23:24:06.945Z,4.25
2022-09-20T23:26:38.213Z,5.18
2022-09-20T23:29:07.675Z,4.20
2022-09-20T23:31:37.628Z,4.50
2022-09-20T23:34:08.103Z,4.10
2022-09-20T23:36:38.186Z,5.10
2022-09-20T23:39:07.957Z,4.75
2022-09-20T23:41:37.593Z,5.55
2022-09-20T23:44:07.572Z,5.15
2022-09-20T23:46:35.490Z,4.32
2022-09-20T23:49:03.741Z,4.43
2022-09-20T23:51:32.782Z,4.45
2022-09-20T23:54:00.844Z,3.90
2022-09-20T23:56:29.196Z,4.35
2022-09-20T23:58:58.764Z,4.13
